sensor_id;sensor_type;location;lat;lon;timestamp;pressure;altitude;pressure_sealevel;temperature;humidity
66479;BME280;53294;47.912;13.526;2023-06-14T00:02:14;95714.94;;;14.78;44.33
66479;BME280;53294;47.912;13.526;2023-06-14T00:04:42;95717.69;;;14.90;41.75
66479;BME280;53294;47.912;13.526;2023-06-14T00:07:09;95712.66;;;14.68;43.21
66479;BME280;53294;47.912;13.526;2023-06-14T00:09:39;95711.53;;;14.69;43.16
66479;BME280;53294;47.912;13.526;2023-06-14T00:12:05;95716.00;;;14.98;41.22
66479;BME280;53294;47.912;13.526;2023-06-14T00:14:33;95718.59;;;14.95;41.46
66479;BME280;53294;47.912;13.526;2023-06-14T00:16:59;95715.34;;;15.01;40.51
66479;BME280;53294;47.912;13.526;2023-06-14T00:19:26;95708.66;;;14.86;41.19
66479;BME280;53294;47.912;13.526;2023-06-14T00:21:53;95709.66;;;14.82;40.98
66479;BME280;53294;47.912;13.526;2023-06-14T00:24:19;95714.81;;;14.75;41.23
66479;BME280;53294;47.912;13.526;2023-06-14T00:26:46;95710.59;;;14.65;41.82
66479;BME280;53294;47.912;13.526;2023-06-14T00:29:13;95707.16;;;14.77;40.89
66479;BME280;53294;47.912;13.526;2023-06-14T00:31:40;95706.56;;;14.71;41.03
66479;BME280;53294;47.912;13.526;2023-06-14T00:34:06;95703.34;;;14.57;42.43
66479;BME280;53294;47.912;13.526;2023-06-14T00:36:33;95706.28;;;14.51;41.70
66479;BME280;53294;47.912;13.526;2023-06-14T00:38:59;95704.75;;;14.63;40.86
66479;BME280;53294;47.912;13.526;2023-06-14T00:41:26;95701.53;;;14.48;42.15
66479;BME280;53294;47.912;13.526;2023-06-14T00:43:53;95702.19;;;14.45;40.98
66479;BME280;53294;47.912;13.526;2023-06-14T00:46:23;95697.63;;;14.37;41.08
66479;BME280;53294;47.912;13.526;2023-06-14T00:48:49;95696.28;;;14.10;43.30
66479;BME280;53294;47.912;13.526;2023-06-14T00:51:16;95698.66;;;14.11;41.92
66479;BME280;53294;47.912;13.526;2023-06-14T00:53:43;95704.84;;;13.91;43.38
66479;BME280;53294;47.912;13.526;2023-06-14T00:56:14;95700.41;;;13.86;43.40
66479;BME280;53294;47.912;13.526;2023-06-14T00:58:41;95705.22;;;13.80;42.85
66479;BME280;53294;47.912;13.526;2023-06-14T01:01:08;95704.19;;;13.94;41.99
66479;BME280;53294;47.912;13.526;2023-06-14T01:03:34;95700.75;;;13.85;42.81
66479;BME280;53294;47.912;13.526;2023-06-14T01:08:41;95709.66;;;13.55;43.66
66479;BME280;53294;47.912;13.526;2023-06-14T01:11:18;95703.81;;;13.44;45.42
66479;BME280;53294;47.912;13.526;2023-06-14T01:13:47;95705.00;;;13.35;44.21
66479;BME280;53294;47.912;13.526;2023-06-14T01:16:14;95701.81;;;13.24;45.32
66479;BME280;53294;47.912;13.526;2023-06-14T01:18:40;95709.97;;;13.06;45.67
66479;BME280;53294;47.912;13.526;2023-06-14T01:21:19;95710.25;;;13.14;45.58
66479;BME280;53294;47.912;13.526;2023-06-14T01:23:46;95713.53;;;13.28;44.20
66479;BME280;53294;47.912;13.526;2023-06-14T01:26:20;95711.94;;;13.36;43.86
66479;BME280;53294;47.912;13.526;2023-06-14T01:28:47;95711.00;;;13.32;44.18
66479;BME280;53294;47.912;13.526;2023-06-14T01:31:19;95705.44;;;13.28;43.97
66479;BME280;53294;47.912;13.526;2023-06-14T01:33:48;95706.72;;;13.22;43.66
66479;BME280;53294;47.912;13.526;2023-06-14T01:36:18;95700.31;;;13.05;44.75
66479;BME280;53294;47.912;13.526;2023-06-14T01:38:45;95700.47;;;13.00;45.01
66479;BME280;53294;47.912;13.526;2023-06-14T01:41:12;95709.06;;;12.85;44.99
66479;BME280;53294;47.912;13.526;2023-06-14T01:43:39;95709.47;;;12.57;47.29
66479;BME280;53294;47.912;13.526;2023-06-14T01:46:08;95713.56;;;12.54;46.73
66479;BME280;53294;47.912;13.526;2023-06-14T01:48:34;95707.72;;;12.35;48.18
66479;BME280;53294;47.912;13.526;2023-06-14T01:51:01;95715.03;;;12.17;49.67
66479;BME280;53294;47.912;13.526;2023-06-14T01:53:28;95712.94;;;12.49;46.37
66479;BME280;53294;47.912;13.526;2023-06-14T01:55:54;95706.63;;;12.45;47.73
66479;BME280;53294;47.912;13.526;2023-06-14T01:58:21;95707.22;;;12.59;46.00
66479;BME280;53294;47.912;13.526;2023-06-14T02:00:47;95713.44;;;12.51;46.99
66479;BME280;53294;47.912;13.526;2023-06-14T02:03:14;95710.88;;;12.63;45.91
66479;BME280;53294;47.912;13.526;2023-06-14T02:05:41;95704.34;;;12.64;46.12
66479;BME280;53294;47.912;13.526;2023-06-14T02:08:08;95712.31;;;12.52;46.81
66479;BME280;53294;47.912;13.526;2023-06-14T02:10:34;95713.88;;;12.44;46.87
66479;BME280;53294;47.912;13.526;2023-06-14T02:13:02;95707.75;;;12.26;47.25
66479;BME280;53294;47.912;13.526;2023-06-14T02:15:29;95714.56;;;12.32;46.40
66479;BME280;53294;47.912;13.526;2023-06-14T02:18:03;95714.53;;;12.15;48.48
66479;BME280;53294;47.912;13.526;2023-06-14T02:20:30;95713.75;;;12.32;46.92
66479;BME280;53294;47.912;13.526;2023-06-14T02:22:57;95711.84;;;12.41;46.30
66479;BME280;53294;47.912;13.526;2023-06-14T02:25:24;95714.53;;;12.50;45.46
66479;BME280;53294;47.912;13.526;2023-06-14T02:27:51;95711.69;;;12.37;45.83
66479;BME280;53294;47.912;13.526;2023-06-14T02:30:17;95714.69;;;12.36;46.08
66479;BME280;53294;47.912;13.526;2023-06-14T02:32:44;95721.81;;;12.41;45.95
66479;BME280;53294;47.912;13.526;2023-06-14T02:35:11;95719.59;;;12.43;45.90
66479;BME280;53294;47.912;13.526;2023-06-14T02:37:37;95715.00;;;12.26;46.41
66479;BME280;53294;47.912;13.526;2023-06-14T02:40:04;95721.19;;;12.26;46.05
66479;BME280;53294;47.912;13.526;2023-06-14T02:42:32;95732.13;;;12.12;46.61
66479;BME280;53294;47.912;13.526;2023-06-14T02:44:58;95725.94;;;12.03;46.87
66479;BME280;53294;47.912;13.526;2023-06-14T02:47:25;95733.22;;;12.02;47.32
66479;BME280;53294;47.912;13.526;2023-06-14T02:49:52;95726.41;;;12.14;46.60
66479;BME280;53294;47.912;13.526;2023-06-14T02:52:18;95732.91;;;12.13;46.81
66479;BME280;53294;47.912;13.526;2023-06-14T02:54:45;95727.03;;;12.02;46.99
66479;BME280;53294;47.912;13.526;2023-06-14T02:57:13;95730.53;;;12.02;46.63
66479;BME280;53294;47.912;13.526;2023-06-14T02:59:40;95734.59;;;11.91;48.02
66479;BME280;53294;47.912;13.526;2023-06-14T03:02:06;95732.16;;;11.63;50.46
66479;BME280;53294;47.912;13.526;2023-06-14T03:04:33;95735.16;;;11.62;49.20
66479;BME280;53294;47.912;13.526;2023-06-14T03:07:04;95737.84;;;11.53;48.92
66479;BME280;53294;47.912;13.526;2023-06-14T03:09:37;95736.91;;;11.66;48.74
66479;BME280;53294;47.912;13.526;2023-06-14T03:12:04;95735.97;;;11.62;48.53
66479;BME280;53294;47.912;13.526;2023-06-14T03:14:33;95731.59;;;11.35;51.24
66479;BME280;53294;47.912;13.526;2023-06-14T03:16:59;95734.94;;;11.41;49.85
66479;BME280;53294;47.912;13.526;2023-06-14T03:19:26;95737.75;;;11.36;50.30
66479;BME280;53294;47.912;13.526;2023-06-14T03:21:53;95723.72;;;11.47;49.17
66479;BME280;53294;47.912;13.526;2023-06-14T03:24:26;95731.22;;;11.68;48.62
66479;BME280;53294;47.912;13.526;2023-06-14T03:26:54;95730.13;;;11.69;48.16
66479;BME280;53294;47.912;13.526;2023-06-14T03:29:20;95737.28;;;11.82;47.38
66479;BME280;53294;47.912;13.526;2023-06-14T03:32:01;95737.88;;;11.71;48.64
66479;BME280;53294;47.912;13.526;2023-06-14T03:34:27;95746.09;;;11.65;48.60
66479;BME280;53294;47.912;13.526;2023-06-14T03:36:54;95751.13;;;11.58;50.53
66479;BME280;53294;47.912;13.526;2023-06-14T03:39:21;95748.25;;;11.46;51.69
66479;BME280;53294;47.912;13.526;2023-06-14T03:41:47;95751.50;;;11.25;52.18
66479;BME280;53294;47.912;13.526;2023-06-14T03:44:15;95745.75;;;11.58;49.37
66479;BME280;53294;47.912;13.526;2023-06-14T03:46:42;95754.28;;;11.60;49.33
66479;BME280;53294;47.912;13.526;2023-06-14T03:49:08;95749.59;;;11.75;48.34
66479;BME280;53294;47.912;13.526;2023-06-14T03:51:35;95755.31;;;11.82;48.21
66479;BME280;53294;47.912;13.526;2023-06-14T03:54:01;95757.25;;;11.90;48.50
66479;BME280;53294;47.912;13.526;2023-06-14T03:56:48;95763.78;;;11.98;48.33
66479;BME280;53294;47.912;13.526;2023-06-14T03:59:15;95762.97;;;11.97;48.10
66479;BME280;53294;47.912;13.526;2023-06-14T04:01:41;95767.41;;;11.93;48.47
66479;BME280;53294;47.912;13.526;2023-06-14T04:04:11;95772.16;;;11.96;48.29
66479;BME280;53294;47.912;13.526;2023-06-14T04:06:38;95769.38;;;11.70;51.03
66479;BME280;53294;47.912;13.526;2023-06-14T04:09:07;95777.47;;;11.79;49.46
66479;BME280;53294;47.912;13.526;2023-06-14T04:11:34;95778.19;;;11.93;48.90
66479;BME280;53294;47.912;13.526;2023-06-14T04:14:01;95777.19;;;11.89;49.88
66479;BME280;53294;47.912;13.526;2023-06-14T04:16:28;95774.06;;;12.05;49.62
66479;BME280;53294;47.912;13.526;2023-06-14T04:18:55;95775.00;;;12.09;49.13
66479;BME280;53294;47.912;13.526;2023-06-14T04:21:21;95772.69;;;12.25;48.36
66479;BME280;53294;47.912;13.526;2023-06-14T04:23:50;95779.13;;;12.15;49.19
66479;BME280;53294;47.912;13.526;2023-06-14T04:26:19;95776.63;;;12.27;48.25
66479;BME280;53294;47.912;13.526;2023-06-14T04:28:49;95777.91;;;12.38;48.42
66479;BME280;53294;47.912;13.526;2023-06-14T04:31:17;95774.75;;;12.54;48.11
66479;BME280;53294;47.912;13.526;2023-06-14T04:33:44;95777.91;;;12.56;48.06
66479;BME280;53294;47.912;13.526;2023-06-14T04:36:13;95778.06;;;12.60;48.81
66479;BME280;53294;47.912;13.526;2023-06-14T04:38:39;95788.19;;;12.63;48.24
66479;BME280;53294;47.912;13.526;2023-06-14T04:41:07;95789.94;;;12.67;48.32
66479;BME280;53294;47.912;13.526;2023-06-14T04:43:38;95783.59;;;12.81;47.97
66479;BME280;53294;47.912;13.526;2023-06-14T04:46:05;95787.72;;;12.87;48.11
66479;BME280;53294;47.912;13.526;2023-06-14T04:48:40;95789.28;;;12.88;48.63
66479;BME280;53294;47.912;13.526;2023-06-14T04:51:08;95800.22;;;13.00;49.04
66479;BME280;53294;47.912;13.526;2023-06-14T04:53:35;95793.53;;;13.06;49.43
66479;BME280;53294;47.912;13.526;2023-06-14T04:56:02;95799.06;;;13.19;49.06
66479;BME280;53294;47.912;13.526;2023-06-14T04:58:29;95800.31;;;13.30;48.84
66479;BME280;53294;47.912;13.526;2023-06-14T05:00:56;95802.22;;;13.38;48.88
66479;BME280;53294;47.912;13.526;2023-06-14T05:03:22;95794.91;;;13.48;48.59
66479;BME280;53294;47.912;13.526;2023-06-14T05:05:50;95799.59;;;13.59;48.59
66479;BME280;53294;47.912;13.526;2023-06-14T05:08:20;95793.53;;;13.71;48.15
66479;BME280;53294;47.912;13.526;2023-06-14T05:10:50;95802.25;;;13.77;48.32
66479;BME280;53294;47.912;13.526;2023-06-14T05:13:17;95789.97;;;13.88;50.11
66479;BME280;53294;47.912;13.526;2023-06-14T05:15:43;95803.88;;;13.99;49.88
66479;BME280;53294;47.912;13.526;2023-06-14T05:18:10;95794.44;;;14.14;49.60
66479;BME280;53294;47.912;13.526;2023-06-14T05:20:37;95796.28;;;14.22;49.17
66479;BME280;53294;47.912;13.526;2023-06-14T05:23:04;95795.50;;;14.22;50.00
66479;BME280;53294;47.912;13.526;2023-06-14T05:25:30;95799.69;;;14.10;51.07
66479;BME280;53294;47.912;13.526;2023-06-14T05:27:57;95803.56;;;14.00;52.60
66479;BME280;53294;47.912;13.526;2023-06-14T05:30:23;95797.06;;;14.23;51.21
66479;BME280;53294;47.912;13.526;2023-06-14T05:32:50;95802.50;;;14.65;50.46
66479;BME280;53294;47.912;13.526;2023-06-14T05:35:17;95805.00;;;14.49;52.88
66479;BME280;53294;47.912;13.526;2023-06-14T05:37:44;95802.16;;;14.45;52.96
66479;BME280;53294;47.912;13.526;2023-06-14T05:40:11;95807.91;;;14.65;51.38
66479;BME280;53294;47.912;13.526;2023-06-14T05:42:37;95801.44;;;14.78;50.74
66479;BME280;53294;47.912;13.526;2023-06-14T05:45:04;95801.94;;;14.93;50.72
66479;BME280;53294;47.912;13.526;2023-06-14T05:47:32;95803.94;;;15.04;50.76
66479;BME280;53294;47.912;13.526;2023-06-14T05:49:59;95808.13;;;15.14;51.01
66479;BME280;53294;47.912;13.526;2023-06-14T05:52:25;95806.38;;;15.31;50.38
66479;BME280;53294;47.912;13.526;2023-06-14T05:54:52;95804.34;;;15.28;52.47
66479;BME280;53294;47.912;13.526;2023-06-14T05:57:19;95802.78;;;14.72;54.08
66479;BME280;53294;47.912;13.526;2023-06-14T05:59:45;95802.63;;;14.47;56.61
66479;BME280;53294;47.912;13.526;2023-06-14T06:02:12;95802.63;;;14.47;57.01
66479;BME280;53294;47.912;13.526;2023-06-14T06:04:39;95795.69;;;15.01;53.83
66479;BME280;53294;47.912;13.526;2023-06-14T06:07:05;95805.66;;;14.88;55.13
66479;BME280;53294;47.912;13.526;2023-06-14T06:09:32;95809.91;;;14.77;55.64
66479;BME280;53294;47.912;13.526;2023-06-14T06:11:59;95809.53;;;15.33;53.90
66479;BME280;53294;47.912;13.526;2023-06-14T06:14:25;95810.66;;;15.44;52.37
66479;BME280;53294;47.912;13.526;2023-06-14T06:16:52;95809.31;;;15.50;51.90
66479;BME280;53294;47.912;13.526;2023-06-14T06:19:19;95812.94;;;15.54;51.28
66479;BME280;53294;47.912;13.526;2023-06-14T06:21:46;95812.88;;;15.88;50.35
66479;BME280;53294;47.912;13.526;2023-06-14T06:24:12;95821.78;;;15.76;50.74
66479;BME280;53294;47.912;13.526;2023-06-14T06:26:39;95810.84;;;15.97;50.43
66479;BME280;53294;47.912;13.526;2023-06-14T06:29:06;95820.56;;;16.10;50.30
66479;BME280;53294;47.912;13.526;2023-06-14T06:31:33;95811.31;;;16.11;49.96
66479;BME280;53294;47.912;13.526;2023-06-14T06:34:00;95823.84;;;16.16;51.30
66479;BME280;53294;47.912;13.526;2023-06-14T06:36:26;95813.91;;;16.20;50.58
66479;BME280;53294;47.912;13.526;2023-06-14T06:38:53;95821.91;;;16.41;50.42
66479;BME280;53294;47.912;13.526;2023-06-14T06:41:19;95819.69;;;16.59;50.49
66479;BME280;53294;47.912;13.526;2023-06-14T06:43:46;95825.63;;;16.49;50.30
66479;BME280;53294;47.912;13.526;2023-06-14T06:46:13;95823.47;;;16.55;50.42
66479;BME280;53294;47.912;13.526;2023-06-14T06:48:40;95818.81;;;16.55;50.14
66479;BME280;53294;47.912;13.526;2023-06-14T06:51:06;95821.94;;;16.69;49.86
66479;BME280;53294;47.912;13.526;2023-06-14T06:53:33;95825.06;;;16.84;49.71
66479;BME280;53294;47.912;13.526;2023-06-14T06:56:09;95822.59;;;16.79;49.74
66479;BME280;53294;47.912;13.526;2023-06-14T06:58:36;95826.66;;;16.85;49.86
66479;BME280;53294;47.912;13.526;2023-06-14T07:01:02;95817.72;;;16.97;49.68
66479;BME280;53294;47.912;13.526;2023-06-14T07:03:29;95831.03;;;17.02;49.43
66479;BME280;53294;47.912;13.526;2023-06-14T07:05:56;95827.56;;;17.17;49.21
66479;BME280;53294;47.912;13.526;2023-06-14T07:08:23;95836.78;;;17.29;49.63
66479;BME280;53294;47.912;13.526;2023-06-14T07:10:49;95837.13;;;17.27;48.81
66479;BME280;53294;47.912;13.526;2023-06-14T07:13:16;95830.25;;;17.62;48.92
66479;BME280;53294;47.912;13.526;2023-06-14T07:15:42;95839.31;;;17.82;48.70
66479;BME280;53294;47.912;13.526;2023-06-14T07:18:09;95839.53;;;17.89;48.09
66479;BME280;53294;47.912;13.526;2023-06-14T07:20:36;95838.81;;;17.92;47.30
66479;BME280;53294;47.912;13.526;2023-06-14T07:23:04;95838.97;;;18.31;47.05
66479;BME280;53294;47.912;13.526;2023-06-14T07:25:32;95844.56;;;18.38;46.94
66479;BME280;53294;47.912;13.526;2023-06-14T07:27:58;95837.97;;;18.39;47.23
66479;BME280;53294;47.912;13.526;2023-06-14T07:30:25;95842.19;;;18.72;46.36
66479;BME280;53294;47.912;13.526;2023-06-14T07:32:53;95840.50;;;19.03;46.21
66479;BME280;53294;47.912;13.526;2023-06-14T07:35:21;95842.50;;;19.06;46.29
66479;BME280;53294;47.912;13.526;2023-06-14T07:37:47;95841.53;;;19.14;46.05
66479;BME280;53294;47.912;13.526;2023-06-14T07:40:14;95846.69;;;19.19;45.54
66479;BME280;53294;47.912;13.526;2023-06-14T07:42:41;95844.31;;;19.37;45.40
66479;BME280;53294;47.912;13.526;2023-06-14T07:45:08;95837.78;;;19.42;45.91
66479;BME280;53294;47.912;13.526;2023-06-14T07:47:35;95836.16;;;19.61;44.96
66479;BME280;53294;47.912;13.526;2023-06-14T07:50:01;95844.44;;;19.68;44.73
66479;BME280;53294;47.912;13.526;2023-06-14T07:52:30;95847.72;;;19.97;44.53
66479;BME280;53294;47.912;13.526;2023-06-14T07:54:57;95843.56;;;20.06;44.62
66479;BME280;53294;47.912;13.526;2023-06-14T07:57:24;95844.16;;;20.19;44.28
66479;BME280;53294;47.912;13.526;2023-06-14T07:59:51;95832.84;;;20.17;43.74
66479;BME280;53294;47.912;13.526;2023-06-14T08:02:17;95843.44;;;20.22;43.41
66479;BME280;53294;47.912;13.526;2023-06-14T08:04:44;95843.03;;;20.47;43.20
66479;BME280;53294;47.912;13.526;2023-06-14T08:07:11;95843.88;;;20.51;43.37
66479;BME280;53294;47.912;13.526;2023-06-14T08:09:38;95847.16;;;20.64;43.24
66479;BME280;53294;47.912;13.526;2023-06-14T08:12:05;95848.13;;;20.75;42.30
66479;BME280;53294;47.912;13.526;2023-06-14T08:14:33;95857.06;;;21.03;42.42
66479;BME280;53294;47.912;13.526;2023-06-14T08:17:00;95844.09;;;21.30;42.55
66479;BME280;53294;47.912;13.526;2023-06-14T08:19:27;95833.50;;;21.55;40.93
66479;BME280;53294;47.912;13.526;2023-06-14T08:21:53;95849.16;;;21.28;41.17
66479;BME280;53294;47.912;13.526;2023-06-14T08:24:21;95838.94;;;21.21;41.46
66479;BME280;53294;47.912;13.526;2023-06-14T08:26:51;95842.69;;;21.43;41.54
66479;BME280;53294;47.912;13.526;2023-06-14T08:29:18;95843.47;;;21.44;41.16
66479;BME280;53294;47.912;13.526;2023-06-14T08:31:44;95855.00;;;21.60;41.22
66479;BME280;53294;47.912;13.526;2023-06-14T08:34:11;95851.53;;;21.63;41.83
66479;BME280;53294;47.912;13.526;2023-06-14T08:36:37;95839.22;;;21.84;40.80
66479;BME280;53294;47.912;13.526;2023-06-14T08:39:04;95850.72;;;22.08;40.39
66479;BME280;53294;47.912;13.526;2023-06-14T08:41:31;95855.41;;;22.03;40.21
66479;BME280;53294;47.912;13.526;2023-06-14T08:43:57;95838.72;;;22.16;39.77
66479;BME280;53294;47.912;13.526;2023-06-14T08:46:25;95852.09;;;22.28;39.70
66479;BME280;53294;47.912;13.526;2023-06-14T08:48:54;95835.09;;;22.56;39.31
66479;BME280;53294;47.912;13.526;2023-06-14T08:51:23;95844.41;;;22.45;39.33
66479;BME280;53294;47.912;13.526;2023-06-14T08:53:54;95847.66;;;22.61;39.26
66479;BME280;53294;47.912;13.526;2023-06-14T08:56:27;95849.25;;;22.69;39.10
66479;BME280;53294;47.912;13.526;2023-06-14T08:58:56;95843.44;;;22.78;39.00
66479;BME280;53294;47.912;13.526;2023-06-14T09:01:23;95846.91;;;22.71;39.14
66479;BME280;53294;47.912;13.526;2023-06-14T09:03:50;95850.00;;;22.66;38.55
66479;BME280;53294;47.912;13.526;2023-06-14T09:06:17;95849.44;;;23.05;38.59
66479;BME280;53294;47.912;13.526;2023-06-14T09:08:45;95847.84;;;22.97;38.36
66479;BME280;53294;47.912;13.526;2023-06-14T09:11:15;95847.16;;;23.15;37.82
66479;BME280;53294;47.912;13.526;2023-06-14T09:13:42;95851.50;;;23.26;37.49
66479;BME280;53294;47.912;13.526;2023-06-14T09:16:09;95851.94;;;23.39;37.63
66479;BME280;53294;47.912;13.526;2023-06-14T09:18:36;95838.63;;;23.41;36.70
66479;BME280;53294;47.912;13.526;2023-06-14T09:21:05;95852.00;;;23.57;36.72
66479;BME280;53294;47.912;13.526;2023-06-14T09:23:39;95844.59;;;23.79;37.41
66479;BME280;53294;47.912;13.526;2023-06-14T09:26:15;95846.59;;;23.90;36.95
66479;BME280;53294;47.912;13.526;2023-06-14T09:28:42;95856.00;;;24.14;37.24
66479;BME280;53294;47.912;13.526;2023-06-14T09:31:14;95856.00;;;24.32;35.90
66479;BME280;53294;47.912;13.526;2023-06-14T09:33:43;95856.38;;;24.27;36.52
66479;BME280;53294;47.912;13.526;2023-06-14T09:36:25;95858.72;;;24.50;35.81
66479;BME280;53294;47.912;13.526;2023-06-14T09:38:52;95858.31;;;24.73;35.98
66479;BME280;53294;47.912;13.526;2023-06-14T09:41:20;95853.97;;;24.90;35.25
66479;BME280;53294;47.912;13.526;2023-06-14T09:43:47;95860.59;;;25.00;35.00
66479;BME280;53294;47.912;13.526;2023-06-14T09:46:14;95862.19;;;24.97;35.29
66479;BME280;53294;47.912;13.526;2023-06-14T09:48:40;95859.03;;;25.09;34.52
66479;BME280;53294;47.912;13.526;2023-06-14T09:51:10;95852.78;;;24.95;35.04
66479;BME280;53294;47.912;13.526;2023-06-14T09:53:40;95854.38;;;24.88;34.66
66479;BME280;53294;47.912;13.526;2023-06-14T09:56:07;95856.28;;;25.02;35.04
66479;BME280;53294;47.912;13.526;2023-06-14T09:58:34;95853.44;;;25.35;34.85
66479;BME280;53294;47.912;13.526;2023-06-14T10:01:05;95840.81;;;25.48;34.48
66479;BME280;53294;47.912;13.526;2023-06-14T10:03:35;95853.69;;;25.62;33.36
66479;BME280;53294;47.912;13.526;2023-06-14T10:06:22;95845.75;;;25.78;33.63
66479;BME280;53294;47.912;13.526;2023-06-14T10:08:52;95847.63;;;25.92;33.70
66479;BME280;53294;47.912;13.526;2023-06-14T10:11:18;95846.69;;;26.17;32.91
66479;BME280;53294;47.912;13.526;2023-06-14T10:13:45;95849.91;;;26.05;32.96
66479;BME280;53294;47.912;13.526;2023-06-14T10:16:14;95852.66;;;26.05;32.51
66479;BME280;53294;47.912;13.526;2023-06-14T10:23:54;95856.88;;;26.20;33.52
66479;BME280;53294;47.912;13.526;2023-06-14T10:26:23;95849.63;;;26.41;33.25
66479;BME280;53294;47.912;13.526;2023-06-14T10:28:57;95854.25;;;26.02;32.87
66479;BME280;53294;47.912;13.526;2023-06-14T10:31:39;95842.47;;;26.47;32.76
66479;BME280;53294;47.912;13.526;2023-06-14T10:34:06;95843.50;;;26.64;32.71
66479;BME280;53294;47.912;13.526;2023-06-14T10:36:33;95841.63;;;26.95;31.70
66479;BME280;53294;47.912;13.526;2023-06-14T10:39:04;95844.31;;;27.02;32.12
66479;BME280;53294;47.912;13.526;2023-06-14T10:41:33;95845.13;;;26.99;31.52
66479;BME280;53294;47.912;13.526;2023-06-14T10:46:39;95836.81;;;27.03;31.72
66479;BME280;53294;47.912;13.526;2023-06-14T10:49:09;95836.78;;;27.07;30.38
66479;BME280;53294;47.912;13.526;2023-06-14T10:51:41;95831.75;;;26.98;31.05
66479;BME280;53294;47.912;13.526;2023-06-14T10:54:14;95827.84;;;26.95;30.60
66479;BME280;53294;47.912;13.526;2023-06-14T10:56:47;95835.69;;;27.00;31.17
66479;BME280;53294;47.912;13.526;2023-06-14T10:59:14;95824.28;;;26.98;30.60
66479;BME280;53294;47.912;13.526;2023-06-14T11:01:48;95832.69;;;27.18;30.93
66479;BME280;53294;47.912;13.526;2023-06-14T11:04:23;95827.94;;;27.53;30.71
66479;BME280;53294;47.912;13.526;2023-06-14T11:07:03;95821.78;;;27.42;30.14
66479;BME280;53294;47.912;13.526;2023-06-14T11:12:09;95830.59;;;27.88;29.97
66479;BME280;53294;47.912;13.526;2023-06-14T11:14:38;95825.19;;;27.81;29.62
66479;BME280;53294;47.912;13.526;2023-06-14T11:17:06;95824.66;;;27.62;29.95
66479;BME280;53294;47.912;13.526;2023-06-14T11:19:33;95826.75;;;27.82;29.09
66479;BME280;53294;47.912;13.526;2023-06-14T11:21:59;95819.19;;;27.58;29.33
66479;BME280;53294;47.912;13.526;2023-06-14T11:24:26;95823.22;;;27.54;29.00
66479;BME280;53294;47.912;13.526;2023-06-14T11:26:55;95817.59;;;27.61;29.35
66479;BME280;53294;47.912;13.526;2023-06-14T11:29:23;95820.72;;;27.63;29.95
66479;BME280;53294;47.912;13.526;2023-06-14T11:31:50;95815.59;;;27.89;28.65
66479;BME280;53294;47.912;13.526;2023-06-14T11:34:17;95820.69;;;27.90;29.14
66479;BME280;53294;47.912;13.526;2023-06-14T11:36:45;95815.94;;;27.67;29.62
66479;BME280;53294;47.912;13.526;2023-06-14T11:39:12;95817.91;;;27.94;28.77
66479;BME280;53294;47.912;13.526;2023-06-14T11:41:44;95823.78;;;27.96;28.30
66479;BME280;53294;47.912;13.526;2023-06-14T11:44:11;95812.59;;;28.30;28.71
66479;BME280;53294;47.912;13.526;2023-06-14T11:46:39;95798.47;;;28.48;29.06
66479;BME280;53294;47.912;13.526;2023-06-14T11:49:06;95803.13;;;28.75;28.37
66479;BME280;53294;47.912;13.526;2023-06-14T11:51:34;95800.09;;;28.90;27.99
66479;BME280;53294;47.912;13.526;2023-06-14T11:54:01;95796.34;;;29.00;27.80
66479;BME280;53294;47.912;13.526;2023-06-14T11:56:29;95800.50;;;29.08;27.16
66479;BME280;53294;47.912;13.526;2023-06-14T11:58:56;95796.22;;;29.07;26.32
66479;BME280;53294;47.912;13.526;2023-06-14T12:01:23;95802.72;;;29.37;25.59
66479;BME280;53294;47.912;13.526;2023-06-14T12:03:50;95794.31;;;29.24;27.47
66479;BME280;53294;47.912;13.526;2023-06-14T12:06:24;95793.38;;;29.31;27.90
66479;BME280;53294;47.912;13.526;2023-06-14T12:08:55;95795.63;;;29.36;26.75
66479;BME280;53294;47.912;13.526;2023-06-14T12:11:22;95791.00;;;29.66;27.22
66479;BME280;53294;47.912;13.526;2023-06-14T12:13:49;95789.91;;;29.63;27.67
66479;BME280;53294;47.912;13.526;2023-06-14T12:16:15;95785.69;;;29.92;26.44
66479;BME280;53294;47.912;13.526;2023-06-14T12:18:42;95790.38;;;29.95;26.38
66479;BME280;53294;47.912;13.526;2023-06-14T12:21:10;95783.47;;;29.86;25.19
66479;BME280;53294;47.912;13.526;2023-06-14T12:26:06;95782.72;;;30.48;24.97
66479;BME280;53294;47.912;13.526;2023-06-14T12:28:36;95780.50;;;30.43;25.50
66479;BME280;53294;47.912;13.526;2023-06-14T12:31:03;95780.97;;;30.54;25.29
66479;BME280;53294;47.912;13.526;2023-06-14T12:33:30;95771.75;;;30.74;23.25
66479;BME280;53294;47.912;13.526;2023-06-14T12:35:57;95779.94;;;30.65;24.92
66479;BME280;53294;47.912;13.526;2023-06-14T12:38:24;95775.31;;;30.87;23.04
66479;BME280;53294;47.912;13.526;2023-06-14T12:40:50;95775.22;;;30.78;23.81
66479;BME280;53294;47.912;13.526;2023-06-14T12:43:17;95779.16;;;30.64;23.08
66479;BME280;53294;47.912;13.526;2023-06-14T12:45:45;95780.22;;;30.83;23.30
66479;BME280;53294;47.912;13.526;2023-06-14T12:48:12;95782.25;;;30.95;24.31
66479;BME280;53294;47.912;13.526;2023-06-14T12:50:39;95777.78;;;30.85;24.55
66479;BME280;53294;47.912;13.526;2023-06-14T12:53:05;95776.22;;;30.84;22.81
66479;BME280;53294;47.912;13.526;2023-06-14T12:55:32;95770.44;;;30.78;23.04
66479;BME280;53294;47.912;13.526;2023-06-14T12:57:59;95775.91;;;30.95;23.27
66479;BME280;53294;47.912;13.526;2023-06-14T13:00:25;95773.34;;;31.17;23.74
66479;BME280;53294;47.912;13.526;2023-06-14T13:02:52;95767.56;;;31.24;23.59
66479;BME280;53294;47.912;13.526;2023-06-14T13:05:19;95768.13;;;31.32;21.81
66479;BME280;53294;47.912;13.526;2023-06-14T13:07:46;95774.25;;;31.40;22.98
66479;BME280;53294;47.912;13.526;2023-06-14T13:10:13;95762.63;;;31.45;21.79